Friday, May 06, 2016
03:36 UTC
  |  Log In   |  Register Free
Airport Search:

Okmulgee Regional Airport
(KOKM)

Okmulgee Regional Airport Diagram
No Airport Diagram Available

FAA data valid effective Mar 31 2016 - May 26 2016 (unless otherwise noted).

 
 
 
 
 
 
 
 
 
 
 
 
 
 
Current Aviation Weather for KOKM

Weather Summary


The most recent METAR observation for OKM was updated at: 12:55 UTC
METAR for KOKM is not available. Closest METAR is for KRVS
KOKM  (most recent observation was updatred at 60:31 UTC)
060315Z AUTO 00000KT 10SM CLR 14/11 A3005 RMK AO2 T01350107

KRVS  (22.4 nm SE)   (most recent observation was updated at 60:25 UTC)
060253Z AUTO 00000KT 10SM CLR 16/10 A3003 RMK AO2 SLP177 60000 T01560100 53014

KMKO  (28.6 nm NW)   (most recent observation was updated at 60:25 UTC)
060253Z AUTO 00000KT 10SM CLR 18/08 A3004 RMK AO2 SLP167 T01830083 53011

TAF for KOKM is not available.
KRVS  (22.4 nm SE)   (most recent observation was updatred at 52:33 UTC)
052338Z 0600/0624 03005KT P6SM FEW250 FM060200 00000KT P6SM SKC FM061600 18005KT P6SM SKC


KTUL  (32.0 nm SW)   (most recent observation was updatred at 52:33 UTC)
052338Z 0600/0624 34007KT P6SM FEW250 FM060200 00000KT P6SM SKC FM061600 18009KT P6SM SKC


GlobalAir.com is loading additional information.
 Current Weather at OKM
63.0 F° (17.0 C°)

East winds at 3.5 mph
Pressure:
30.01 in
Humidity:
67%
Wind:
East at 3.5 mph
Dew Point:
51.3 F° (10.7 C°)
Visibility:
10.00 mi
OKM NOAA Radar




Find All Airport Services Find A Hotel Find A Rental Car Find A Golf Course Find A Restaurant $100 Hamburger



Airport Weather Forecast for KOKM

Translated METAR for KOKM (0315 UTC)
METAR:
KOKM 060315Z AUTO 00000KT 10SM CLR 14/11 A3005 RMK AO2 T01350107
Conditions at:
KOKM (Okmulgee Rgnl, OK) observed 0315 UTC 05 May 2016
Temperature:
14°C (57.2°F)
Dewpoint:
11°C (51.8°F) [RH = 82.1]
Pressure:
30.05 inches Hg (1017.6 mb)
Winds:
from the N (000 degrees) at 0 mph (0 knots: 0 m/s)
Visibility:
10 mile(s)
Ceiling:
at least 12,000 feet AGL
Clouds:
Clear below 12,000 feet AGL
Remarks:
site is un-manned
site is automated and HAS a precipitation sensor

Translated TAF for KRVS (Richard Lloyd Jones Jr, OK) (2338 UTC)
TAF text:
KRVS 052338Z 0600/0624 03005KT P6SM FEW250
Forecast period:
Friday May 06 2016 00:00 UTC - Friday May 06 2016 24:00 UTC
Forecast type:
FROM: standard forecast or significant change
Winds:
from the NNE (030 degrees) at 5.8 mph (5 knots: 2.6 m/s)
Visibility:
6 or more mile(s) (9.7+ km)
Ceiling:
at least 12,000 feet AGL
Clouds:
Few Clouds at 25,000 feet AGL
Weather:
no significant weather observed at this time
TAF text:
FM060200 00000KT P6SM SKC
Forecast period:
Friday May 06 2016 02:00 UTC - Friday May 06 2016 16:00 UTC
Forecast type:
FROM: standard forecast or significant change
Winds:
from the N (000 degrees) at 0 mph (0 knots: 0 m/s)
Visibility:
6 or more mile(s) (9.7+ km)
Ceiling:
at least 12,000 feet AGL
Clouds:
Clear Skies
Weather:
no significant weather observed at this time
TAF text:
FM061600 18005KT P6SM SKC
Forecast period:
Friday May 06 2016 16:00 UTC - Friday May 06 2016 24:00 UTC
Forecast type:
FROM: standard forecast or significant change
Winds:
from the S (180 degrees) at 5.8 mph (5 knots: 2.6 m/s)
Visibility:
6 or more mile(s) (9.7+ km)
Ceiling:
at least 12,000 feet AGL
Clouds:
Clear Skies
Weather:
no significant weather observed at this time
FBO's on the Field
FBO Company Facility Photos Services Transportation Aviation Fuel Prices: Prices include tax
Catering Weather Repair Courtesy Rental Type 100LL JetA JetA+ MOGAS 8087
 
Okmulgee Regional Airport

This FBO has not yet been rated
FS:Phillips 66
Last Updated: Apr-14
Login to update fuel prices
SS:
Contact Okmulgee Regional AirportMore FBO Information
 
Add another FBO Facility Photos Catering Weather Repair Courtesy Rental Type 100LL JetA JetA+ MOGAS 8087
Services Transportation Aviation Fuel Prices: Prices include tax


model-print
model-print
model-print
model-print